Time;durP1;ratioP1;P1;durP2;ratioP2;P2;SDS_P1;SDS_P2;PMS_P1;PMS_P2;Temp;Humidity;BMP_temperature;BMP_pressure;BME280_temperature;BME280_humidity;BME280_pressure;Samples;Min_cycle;Max_cycle;Signal;HPM_P1;HPM_P2
2021/12/01 00:01:07;;;;;;;14.93;6.72;;;;;;;-4.36;71.87;94421.72;5095091;27;20039;-71
2021/12/01 00:03:33;;;;;;;17.20;7.65;;;;;;;-4.37;72.20;94450.50;5131518;27;20035;-71
2021/12/01 00:05:58;;;;;;;33.67;11.90;;;;;;;-4.38;71.14;94446.31;5114488;27;20062;-71
2021/12/01 00:08:24;;;;;;;20.30;8.98;;;;;;;-4.50;70.94;94460.19;5131525;27;20031;-71
2021/12/01 00:10:49;;;;;;;14.00;6.53;;;;;;;-4.50;72.02;94466.97;5130444;27;20035;-71
2021/12/01 00:13:16;;;;;;;14.68;7.45;;;;;;;-4.34;71.21;94460.56;5131501;27;20235;-71
2021/12/01 00:15:43;;;;;;;18.02;6.88;;;;;;;-4.39;72.58;94449.72;5131548;27;20024;-71
2021/12/01 00:18:08;;;;;;;13.88;7.72;;;;;;;-4.20;72.22;94466.91;5096682;28;20031;-71
2021/12/01 00:20:34;;;;;;;32.83;17.17;;;;;;;-4.10;72.20;94455.59;5093921;28;20062;-71
2021/12/01 00:23:00;;;;;;;16.20;8.50;;;;;;;-4.20;72.31;94456.78;5110669;28;20315;-71
2021/12/01 00:25:26;;;;;;;11.10;7.10;;;;;;;-4.17;72.97;94457.50;5093576;28;20517;-71
2021/12/01 00:27:51;;;;;;;14.13;6.82;;;;;;;-4.28;72.16;94417.25;5093621;28;20020;-71
2021/12/01 00:30:18;;;;;;;13.32;7.32;;;;;;;-4.16;71.97;94416.03;5093295;28;20503;-71
2021/12/01 00:32:43;;;;;;;14.52;7.00;;;;;;;-4.05;72.07;94410.59;5093576;28;20225;-71
2021/12/01 00:35:09;;;;;;;10.50;6.55;;;;;;;-4.39;72.76;94433.69;5111962;28;20428;-71
2021/12/01 00:37:34;;;;;;;11.27;6.70;;;;;;;-4.33;72.66;94431.78;5111468;28;20062;-72
2021/12/01 00:40:00;;;;;;;10.88;6.45;;;;;;;-4.77;73.16;94435.66;5093348;28;20035;-71
2021/12/01 00:42:25;;;;;;;9.57;5.88;;;;;;;-4.75;73.35;94428.84;5110382;28;20031;-71
2021/12/01 00:44:56;;;;;;;11.20;6.25;;;;;;;-4.51;74.04;94433.19;5111485;27;20042;-71
2021/12/01 00:48:22;;;;;;;9.73;5.10;;;;;;;-4.29;71.43;94419.81;5112342;27;20028;-71
2021/12/01 00:50:22;;;;;;;9.38;5.43;;;;;;;-4.24;70.11;94405.28;5122109;27;20192;-71
2021/12/01 00:52:47;;;;;;;9.30;5.68;;;;;;;-4.14;70.32;94400.75;5130952;27;20049;-71
2021/12/01 00:55:13;;;;;;;7.15;4.63;;;;;;;-3.99;69.21;94417.19;5132290;27;20520;-71
2021/12/01 00:57:38;;;;;;;12.25;5.80;;;;;;;-4.07;71.68;94397.13;5130329;27;20511;-71
2021/12/01 01:00:05;;;;;;;8.73;4.97;;;;;;;-4.16;71.49;94379.69;5130847;27;20035;-71
2021/12/01 01:02:31;;;;;;;8.48;4.95;;;;;;;-4.16;71.08;94389.81;5130615;27;20027;-71
2021/12/01 01:04:56;;;;;;;9.23;4.97;;;;;;;-3.99;71.36;94396.88;5113379;27;20565;-71
2021/12/01 01:07:21;;;;;;;11.88;6.03;;;;;;;-3.86;71.96;94408.28;5111613;27;20435;-70
2021/12/01 01:09:47;;;;;;;14.10;8.38;;;;;;;-4.15;73.04;94364.41;5109368;28;20043;-71
2021/12/01 01:17:41;;;;;;;9.95;5.90;;;;;;;-4.10;72.41;94400.59;5110293;28;20039;-71
2021/12/01 01:20:09;;;;;;;14.00;7.00;;;;;;;-4.15;72.19;94407.53;5110042;28;20047;-70
2021/12/01 01:22:35;;;;;;;15.80;8.57;;;;;;;-4.17;72.22;94408.47;5111075;28;20086;-72
2021/12/01 01:25:00;;;;;;;12.93;7.15;;;;;;;-4.34;72.76;94425.06;5126974;28;20542;-71
2021/12/01 01:27:26;;;;;;;16.92;8.82;;;;;;;-4.24;73.28;94423.03;5109893;28;20273;-71
2021/12/01 01:29:51;;;;;;;10.85;6.95;;;;;;;-4.34;73.70;94398.88;5129656;28;20046;-71
2021/12/01 01:32:17;;;;;;;10.45;5.95;;;;;;;-4.22;72.83;94425.53;5131669;27;20084;-71
2021/12/01 01:34:42;;;;;;;10.02;6.40;;;;;;;-4.26;73.53;94427.34;5096294;28;20546;-71
2021/12/01 01:37:07;;;;;;;14.85;8.70;;;;;;;-4.19;73.99;94441.50;5101268;28;20035;-71
2021/12/01 01:39:33;;;;;;;17.75;9.82;;;;;;;-3.99;73.41;94445.91;5109880;28;20042;-72
2021/12/01 01:41:58;;;;;;;19.90;10.85;;;;;;;-3.90;73.47;94455.78;5133896;27;20490;-71
2021/12/01 01:44:24;;;;;;;20.13;10.00;;;;;;;-4.09;73.87;94457.25;5135725;27;20035;-72
2021/12/01 01:46:49;;;;;;;16.35;9.45;;;;;;;-3.97;73.41;94435.72;5117148;27;20034;-72
2021/12/01 01:49:19;;;;;;;15.85;8.25;;;;;;;-4.00;73.43;94441.72;5109055;28;20043;-71
2021/12/01 01:51:46;;;;;;;12.32;7.93;;;;;;;-3.90;73.90;94435.50;5114138;28;20434;-71
2021/12/01 01:54:12;;;;;;;13.00;6.95;;;;;;;-3.82;73.13;94442.84;5096826;28;20165;-72
2021/12/01 01:56:38;;;;;;;13.32;7.00;;;;;;;-3.67;73.22;94452.50;5131841;27;20027;-71
2021/12/01 01:59:03;;;;;;;10.35;6.03;;;;;;;-3.67;73.92;94434.72;5116941;27;20185;-71
2021/12/01 02:01:44;;;;;;;11.23;6.20;;;;;;;-3.75;74.13;94424.00;5134146;27;20019;-73
2021/12/01 02:04:10;;;;;;;9.18;5.15;;;;;;;-3.69;72.63;94420.41;5126223;27;20035;-72
2021/12/01 02:06:35;;;;;;;9.27;4.75;;;;;;;-3.89;72.37;94421.09;5113397;28;20024;-72
2021/12/01 02:09:01;;;;;;;10.55;4.80;;;;;;;-3.78;71.75;94431.72;5096262;28;20035;-71
2021/12/01 02:11:27;;;;;;;12.35;5.32;;;;;;;-3.69;71.30;94413.63;5096305;28;20059;-71
2021/12/01 02:13:53;;;;;;;13.27;6.18;;;;;;;-3.70;72.48;94401.00;5113195;28;20059;-71
2021/12/01 02:16:19;;;;;;;9.77;5.22;;;;;;;-3.52;71.93;94425.75;5113070;27;20038;-71
2021/12/01 02:18:44;;;;;;;11.18;5.40;;;;;;;-3.54;72.10;94416.50;5134993;27;20062;-71
2021/12/01 02:21:11;;;;;;;9.27;5.38;;;;;;;-3.46;70.34;94386.59;5134828;27;20019;-71
2021/12/01 02:23:41;;;;;;;9.98;5.03;;;;;;;-3.43;70.66;94404.28;5129062;27;20059;-71
2021/12/01 02:26:06;;;;;;;9.43;5.20;;;;;;;-3.38;70.41;94387.16;5116665;27;20031;-71
2021/12/01 02:28:32;;;;;;;8.65;5.07;;;;;;;-3.33;70.35;94380.22;5116359;27;20530;-71
2021/12/01 02:30:58;;;;;;;8.75;4.85;;;;;;;-3.24;71.54;94384.94;5133472;27;20382;-72
2021/12/01 02:33:23;;;;;;;9.32;4.95;;;;;;;-3.46;72.96;94389.13;5107948;28;20027;-71
2021/12/01 02:35:49;;;;;;;10.82;5.93;;;;;;;-3.40;72.50;94410.09;5112946;28;20039;-71
2021/12/01 02:38:14;;;;;;;13.68;6.00;;;;;;;-3.38;72.65;94382.91;5112862;28;20024;-71
2021/12/01 02:40:40;;;;;;;10.63;5.15;;;;;;;-3.38;70.72;94395.59;5103711;27;20027;-72
2021/12/01 02:43:05;;;;;;;10.57;4.95;;;;;;;-3.37;70.63;94389.66;5134422;27;20027;-71
2021/12/01 02:45:30;;;;;;;11.05;5.45;;;;;;;-3.30;73.46;94376.72;5116204;27;20035;-71
2021/12/01 02:47:56;;;;;;;13.15;6.30;;;;;;;-3.19;73.08;94378.00;5115952;27;20446;-71
2021/12/01 02:50:21;;;;;;;9.65;5.95;;;;;;;-3.28;72.43;94359.72;5116035;27;20424;-72
2021/12/01 02:52:47;;;;;;;6.78;5.22;;;;;;;-3.34;73.58;94378.56;5132583;27;20392;-71
2021/12/01 02:55:15;;;;;;;10.35;4.85;;;;;;;-3.24;73.91;94384.13;5123187;27;20040;-71
2021/12/01 02:57:59;;;;;;;10.90;6.57;;;;;;;-3.20;73.14;94403.47;5113694;28;20500;-71
2021/12/01 03:00:25;;;;;;;11.05;7.05;;;;;;;-3.07;72.31;94406.38;5112580;28;20046;-71
2021/12/01 03:02:51;;;;;;;11.88;7.63;;;;;;;-3.13;73.29;94411.69;5112148;28;20052;-71
2021/12/01 03:05:17;;;;;;;10.35;6.15;;;;;;;-3.29;73.25;94403.78;5095134;28;20079;-71
2021/12/01 03:07:42;;;;;;;9.73;6.15;;;;;;;-3.21;74.18;94404.34;5112261;28;20023;-71
2021/12/01 03:10:08;;;;;;;7.93;5.07;;;;;;;-3.38;73.05;94382.91;5122119;27;20554;-71
2021/12/01 03:12:35;;;;;;;6.85;4.65;;;;;;;-3.17;72.39;94403.38;5098581;27;20078;-71
2021/12/01 03:15:00;;;;;;;9.25;5.80;;;;;;;-3.15;72.65;94417.66;5111327;28;20031;-71
2021/12/01 03:17:26;;;;;;;11.50;6.18;;;;;;;-3.53;73.47;94380.91;5112086;28;20390;-71
2021/12/01 03:19:52;;;;;;;7.85;4.90;;;;;;;-3.26;73.50;94422.31;5095016;28;20123;-71
2021/12/01 03:22:18;;;;;;;8.23;5.95;;;;;;;-3.22;74.07;94428.91;5111893;28;20110;-71
2021/12/01 03:24:43;;;;;;;10.85;4.82;;;;;;;-3.24;72.22;94412.06;5118732;27;20096;-70
2021/12/01 03:27:09;;;;;;;7.13;4.20;;;;;;;-3.07;69.37;94426.72;5133615;27;20023;-71
2021/12/01 03:29:34;;;;;;;6.65;3.95;;;;;;;-3.17;69.53;94411.81;5115076;27;20098;-71
2021/12/01 03:31:59;;;;;;;7.25;4.30;;;;;;;-3.20;72.68;94424.63;5114392;27;20036;-71
2021/12/01 03:34:25;;;;;;;5.93;3.85;;;;;;;-3.05;71.23;94440.19;5118380;27;20902;-73
2021/12/01 03:36:50;;;;;;;8.02;4.65;;;;;;;-3.26;70.04;94432.47;5106967;27;20543;-73
2021/12/01 03:39:16;;;;;;;8.63;4.53;;;;;;;-3.29;69.58;94414.78;5113377;27;20042;-73
2021/12/01 03:41:41;;;;;;;8.10;4.70;;;;;;;-3.27;70.62;94425.72;5103664;28;20509;-73
2021/12/01 03:44:07;;;;;;;6.10;4.03;;;;;;;-3.10;68.69;94424.28;5092193;28;20437;-73
2021/12/01 03:46:33;;;;;;;4.97;3.45;;;;;;;-3.00;66.87;94434.06;5074645;28;20059;-73
2021/12/01 03:48:58;;;;;;;6.30;4.28;;;;;;;-3.01;68.34;94418.84;5110330;28;20020;-73
2021/12/01 03:51:24;;;;;;;6.43;4.22;;;;;;;-3.10;69.64;94417.47;5076273;28;20027;-73
2021/12/01 03:53:50;;;;;;;7.65;4.72;;;;;;;-3.06;69.93;94418.22;5087255;27;20047;-73
2021/12/01 03:56:18;;;;;;;7.68;4.82;;;;;;;-3.06;70.99;94424.13;5131321;27;20062;-73
2021/12/01 03:58:44;;;;;;;14.35;9.05;;;;;;;-3.06;70.98;94420.75;5113264;27;20027;-73
2021/12/01 04:01:12;;;;;;;10.18;6.60;;;;;;;-3.15;71.91;94401.56;5133151;27;20404;-73
2021/12/01 04:03:38;;;;;;;10.55;5.35;;;;;;;-3.02;72.17;94415.50;5115219;27;20027;-73
2021/12/01 04:06:03;;;;;;;10.13;4.82;;;;;;;-2.91;71.20;94417.66;5097487;27;20433;-73
2021/12/01 04:08:29;;;;;;;7.75;4.72;;;;;;;-2.88;69.98;94412.44;5131583;27;20409;-73
2021/12/01 04:10:54;;;;;;;9.70;5.43;;;;;;;-2.80;70.21;94402.00;5131408;27;20035;-73
2021/12/01 04:13:20;;;;;;;8.18;5.53;;;;;;;-2.88;70.34;94381.94;5114521;27;20035;-73
2021/12/01 04:15:45;;;;;;;9.32;5.43;;;;;;;-2.87;70.23;94376.00;5093061;27;20023;-72
2021/12/01 04:18:11;;;;;;;7.50;5.10;;;;;;;-2.78;70.38;94390.88;5087228;28;20039;-72
2021/12/01 04:20:36;;;;;;;7.28;4.97;;;;;;;-2.86;71.18;94395.44;5096408;27;20023;-71
2021/12/01 04:23:02;;;;;;;8.55;5.35;;;;;;;-3.01;71.00;94401.06;5096388;27;20075;-71
2021/12/01 04:25:27;;;;;;;12.48;6.30;;;;;;;-3.01;71.67;94396.84;5130145;27;20031;-71
2021/12/01 04:27:53;;;;;;;10.55;6.00;;;;;;;-2.94;71.73;94405.88;5131774;27;20481;-72
2021/12/01 04:30:23;;;;;;;12.73;6.72;;;;;;;-2.97;71.71;94388.19;5130707;27;20042;-72
2021/12/01 04:32:49;;;;;;;12.80;6.22;;;;;;;-2.99;72.94;94384.88;5109111;27;20122;-71
2021/12/01 04:35:17;;;;;;;8.02;4.80;;;;;;;-3.07;71.73;94384.34;5108657;28;20066;-71
2021/12/01 04:37:43;;;;;;;9.55;5.78;;;;;;;-3.10;71.85;94387.00;5109575;28;20089;-71
2021/12/01 04:40:09;;;;;;;12.27;5.85;;;;;;;-3.08;72.67;94402.19;5092255;28;20509;-71
2021/12/01 04:42:35;;;;;;;8.85;5.00;;;;;;;-3.23;72.66;94376.47;5109607;28;20024;-71
2021/12/01 04:45:00;;;;;;;8.45;4.65;;;;;;;-3.10;72.53;94404.78;5109552;28;20390;-71
2021/12/01 04:47:30;;;;;;;8.55;5.28;;;;;;;-3.32;73.29;94404.72;5109143;28;20408;-72
2021/12/01 04:49:56;;;;;;;7.82;4.68;;;;;;;-3.37;73.40;94415.06;5091276;28;20437;-71
2021/12/01 04:52:22;;;;;;;8.18;5.38;;;;;;;-3.30;73.52;94394.50;5092224;28;20059;-71
2021/12/01 04:54:47;;;;;;;8.43;5.63;;;;;;;-3.25;73.02;94415.50;5109379;28;20110;-71
2021/12/01 04:57:13;;;;;;;7.30;5.00;;;;;;;-3.33;73.28;94403.06;5110603;28;20038;-71
2021/12/01 04:59:38;;;;;;;9.20;5.85;;;;;;;-3.29;73.17;94431.72;5110904;28;20031;-71
2021/12/01 05:02:04;;;;;;;9.25;7.05;;;;;;;-3.45;73.62;94441.63;5108834;28;20501;-72
2021/12/01 05:04:29;;;;;;;10.93;6.13;;;;;;;-3.49;74.45;94433.25;5110844;28;20052;-72
2021/12/01 05:06:55;;;;;;;7.03;4.55;;;;;;;-3.54;74.61;94408.91;5107983;28;20107;-72
2021/12/01 05:09:20;;;;;;;8.25;5.40;;;;;;;-3.43;75.10;94439.81;5095452;27;20549;-72
2021/12/01 05:11:46;;;;;;;18.23;8.80;;;;;;;-3.36;74.85;94443.81;5131070;27;20019;-74
2021/12/01 05:14:12;;;;;;;17.77;9.00;;;;;;;-3.28;74.24;94464.72;5129701;27;20109;-72
2021/12/01 05:16:39;;;;;;;12.07;8.23;;;;;;;-3.34;74.99;94449.69;5129018;28;20027;-73
2021/12/01 05:19:07;;;;;;;22.42;11.27;;;;;;;-3.32;73.58;94455.53;5113019;28;20047;-73
2021/12/01 05:21:33;;;;;;;24.17;11.85;;;;;;;-3.19;73.71;94444.06;5130740;27;20016;-73
2021/12/01 05:23:59;;;;;;;29.17;13.77;;;;;;;-3.40;73.90;94445.66;5109997;28;20077;-73
2021/12/01 05:26:25;;;;;;;34.70;16.50;;;;;;;-3.33;74.16;94446.25;5112707;28;20485;-74
2021/12/01 05:28:50;;;;;;;31.88;16.60;;;;;;;-3.40;74.91;94449.88;5095841;28;20027;-74
2021/12/01 05:31:16;;;;;;;36.97;19.35;;;;;;;-3.30;74.81;94461.38;5129186;28;20413;-74
2021/12/01 05:33:41;;;;;;;41.58;22.05;;;;;;;-3.29;74.73;94465.56;5112230;28;20027;-74
2021/12/01 05:36:08;;;;;;;28.92;15.93;;;;;;;-3.37;75.10;94448.09;5130792;27;20031;-74
2021/12/01 05:38:33;;;;;;;20.23;12.88;;;;;;;-3.33;74.78;94436.09;5127093;28;20379;-73
2021/12/01 05:40:58;;;;;;;17.00;9.60;;;;;;;-3.28;75.05;94451.19;5112294;28;20015;-73
2021/12/01 05:43:24;;;;;;;16.75;8.95;;;;;;;-3.34;74.42;94437.00;5112307;28;20495;-73
2021/12/01 05:45:50;;;;;;;13.30;7.40;;;;;;;-3.41;73.84;94438.06;5112268;28;20428;-73
2021/12/01 05:48:16;;;;;;;23.60;11.93;;;;;;;-3.32;73.37;94450.44;5129115;28;20031;-73
2021/12/01 05:50:41;;;;;;;18.15;8.40;;;;;;;-3.36;74.65;94446.38;5129621;28;20023;-73
2021/12/01 05:53:07;;;;;;;12.70;6.80;;;;;;;-3.37;74.55;94429.47;5131403;27;20496;-74
2021/12/01 05:55:32;;;;;;;12.68;6.68;;;;;;;-3.28;74.49;94436.78;5130319;27;20042;-73
2021/12/01 05:57:58;;;;;;;10.82;5.82;;;;;;;-3.26;74.37;94437.56;5130200;28;20106;-73
2021/12/01 06:00:23;;;;;;;14.65;7.93;;;;;;;-3.37;74.60;94444.72;5130272;28;20043;-72
2021/12/01 06:02:52;;;;;;;12.13;7.38;;;;;;;-3.28;74.19;94468.97;5095969;28;20027;-73
2021/12/01 06:05:18;;;;;;;13.93;6.90;;;;;;;-3.32;74.15;94464.88;5130090;28;20086;-74
2021/12/01 06:07:44;;;;;;;10.70;6.60;;;;;;;-3.44;73.87;94458.50;5129116;28;20023;-74
2021/12/01 06:10:09;;;;;;;12.63;6.95;;;;;;;-3.46;74.22;94467.88;5112629;28;20405;-73
2021/12/01 06:12:35;;;;;;;9.57;6.63;;;;;;;-3.39;74.34;94474.41;5112900;28;20061;-73
2021/12/01 06:15:01;;;;;;;10.30;5.90;;;;;;;-3.34;72.79;94471.69;5125031;27;20099;-73
2021/12/01 06:17:26;;;;;;;15.40;8.43;;;;;;;-3.61;73.51;94477.69;5081532;28;20039;-73
2021/12/01 06:19:53;;;;;;;41.88;27.38;;;;;;;-3.31;74.36;94491.94;5110248;28;20035;-72
2021/12/01 06:22:18;;;;;;;27.27;17.17;;;;;;;-3.23;73.98;94490.81;5131098;27;20054;-72
2021/12/01 06:24:44;;;;;;;25.20;16.33;;;;;;;-3.22;73.81;94489.91;5129988;28;20508;-73
2021/12/01 06:27:09;;;;;;;19.42;10.57;;;;;;;-3.25;74.36;94477.31;5123773;27;20031;-74
2021/12/01 06:29:36;;;;;;;79.80;46.67;;;;;;;-3.03;74.35;94505.34;5108582;27;20024;-74
2021/12/01 06:32:02;;;;;;;36.10;22.42;;;;;;;-2.95;74.35;94516.09;5124279;27;20042;-73
2021/12/01 06:34:27;;;;;;;34.10;19.98;;;;;;;-3.05;73.80;94484.22;5099214;27;20035;-73
2021/12/01 06:36:53;;;;;;;29.80;15.95;;;;;;;-3.22;74.27;94491.63;5133027;27;20074;-73
2021/12/01 06:39:18;;;;;;;19.50;11.90;;;;;;;-2.95;73.90;94510.19;5132197;27;20420;-75
2021/12/01 06:41:44;;;;;;;30.40;17.83;;;;;;;-2.83;74.05;94527.53;5114716;27;20032;-73
2021/12/01 06:44:09;;;;;;;23.90;14.40;;;;;;;-2.85;74.83;94524.19;5110497;28;20031;-73
2021/12/01 06:46:35;;;;;;;17.88;10.10;;;;;;;-3.01;74.72;94521.38;5076899;28;20024;-74
2021/12/01 06:49:00;;;;;;;14.38;8.63;;;;;;;-2.99;73.14;94529.75;5094100;28;20035;-73
2021/12/01 06:51:25;;;;;;;12.80;7.90;;;;;;;-2.73;72.48;94544.13;5094217;28;20444;-73
2021/12/01 06:53:51;;;;;;;18.48;12.20;;;;;;;-2.50;71.00;94538.19;5111201;28;20438;-73
2021/12/01 06:56:18;;;;;;;12.95;6.15;;;;;;;-2.41;69.11;94538.75;5094117;28;20055;-73
2021/12/01 06:58:44;;;;;;;7.40;5.20;;;;;;;-2.36;69.44;94537.69;5095621;28;20042;-73
2021/12/01 07:01:09;;;;;;;8.02;5.45;;;;;;;-2.35;69.43;94539.34;5095474;28;20015;-73
2021/12/01 07:03:35;;;;;;;12.27;4.72;;;;;;;-2.18;68.67;94536.16;5112316;28;20039;-74
2021/12/01 07:06:01;;;;;;;7.10;4.57;;;;;;;-1.99;68.09;94545.66;5112402;28;20039;-73
2021/12/01 07:08:26;;;;;;;10.68;4.43;;;;;;;-2.01;68.19;94530.44;5112284;28;20047;-74
2021/12/01 07:10:52;;;;;;;9.82;4.57;;;;;;;-2.04;68.83;94528.00;5113913;28;20027;-73
2021/12/01 07:13:17;;;;;;;8.38;5.13;;;;;;;-2.08;70.40;94541.75;5112138;28;20027;-73
2021/12/01 07:15:43;;;;;;;10.10;6.88;;;;;;;-2.03;71.30;94534.78;5095343;28;20039;-73
2021/12/01 07:18:08;;;;;;;15.65;8.98;;;;;;;-1.95;71.14;94535.31;5112124;28;20063;-74
2021/12/01 07:20:34;;;;;;;12.13;6.93;;;;;;;-1.73;71.60;94540.38;5113213;28;20031;-74
2021/12/01 07:23:00;;;;;;;11.55;6.85;;;;;;;-1.60;71.72;94543.28;5112067;28;20031;-73
2021/12/01 07:25:26;;;;;;;12.25;8.15;;;;;;;-1.54;72.11;94543.03;5095316;28;20303;-74
2021/12/01 07:27:51;;;;;;;8.98;5.50;;;;;;;-1.66;68.44;94510.41;5111963;28;20031;-73
2021/12/01 07:30:17;;;;;;;46.67;23.58;;;;;;;-1.39;68.24;94491.44;5078012;28;20497;-73
2021/12/01 07:32:42;;;;;;;24.88;15.10;;;;;;;-0.73;67.15;94514.13;5113075;28;20485;-73
2021/12/01 07:35:08;;;;;;;27.73;14.43;;;;;;;-1.05;69.00;94525.72;5094601;28;20497;-74
2021/12/01 07:37:34;;;;;;;18.35;11.45;;;;;;;-1.14;70.07;94526.94;5112593;28;20119;-74
2021/12/01 07:39:59;;;;;;;17.60;10.98;;;;;;;-0.88;68.79;94516.53;5094597;28;20028;-74
2021/12/01 07:42:25;;;;;;;19.10;11.38;;;;;;;-0.29;66.64;94495.19;5094598;28;20024;-73
2021/12/01 07:44:50;;;;;;;18.63;11.07;;;;;;;-0.62;69.06;94510.28;5111587;28;20405;-73
2021/12/01 07:47:15;;;;;;;15.65;10.13;;;;;;;-0.77;69.68;94538.13;5111582;28;20077;-73
2021/12/01 07:49:41;;;;;;;17.45;9.60;;;;;;;-0.39;69.22;94534.78;5094416;28;20074;-73
2021/12/01 07:52:07;;;;;;;25.35;14.77;;;;;;;-0.58;69.49;94537.34;5111337;28;20172;-73
2021/12/01 07:54:33;;;;;;;19.15;11.90;;;;;;;-0.96;70.29;94535.53;5094403;28;20023;-73
2021/12/01 07:56:59;;;;;;;23.05;14.18;;;;;;;-0.98;70.52;94555.16;5094322;28;20148;-73
2021/12/01 07:59:24;;;;;;;29.88;20.33;;;;;;;-0.91;71.44;94541.25;5111271;28;20473;-73
2021/12/01 08:01:50;;;;;;;45.10;28.08;;;;;;;-0.87;70.90;94541.13;5094155;28;20050;-73
2021/12/01 08:04:15;;;;;;;36.30;21.13;;;;;;;-0.93;72.24;94560.91;5110801;28;20097;-73
2021/12/01 08:06:43;;;;;;;30.85;18.48;;;;;;;-1.01;71.42;94562.94;5094033;28;20024;-73
2021/12/01 08:09:08;;;;;;;34.65;21.42;;;;;;;-0.91;71.35;94574.41;5094325;28;20615;-73
2021/12/01 08:11:34;;;;;;;22.52;14.40;;;;;;;-1.03;73.19;94574.94;5112222;28;20420;-73
2021/12/01 08:13:59;;;;;;;26.20;14.27;;;;;;;-0.92;72.60;94567.66;5093937;28;20497;-73
2021/12/01 08:16:25;;;;;;;17.85;11.48;;;;;;;-0.80;73.65;94568.88;5110922;28;20410;-73
2021/12/01 08:18:56;;;;;;;18.85;11.88;;;;;;;-0.69;72.82;94565.88;5110750;28;20078;-74
2021/12/01 08:21:22;;;;;;;21.63;11.75;;;;;;;-0.59;72.21;94574.75;5078523;28;20023;-74
2021/12/01 08:23:48;;;;;;;21.58;12.10;;;;;;;-0.52;72.31;94586.38;5076739;28;20445;-74
2021/12/01 08:26:14;;;;;;;21.80;12.82;;;;;;;-0.44;72.67;94572.47;5110789;28;20023;-73
2021/12/01 08:28:41;;;;;;;23.52;12.90;;;;;;;-0.38;73.39;94570.47;5110745;28;20024;-74
2021/12/01 08:31:07;;;;;;;21.08;10.60;;;;;;;-0.34;73.29;94568.59;5110653;28;20050;-73
2021/12/01 08:33:32;;;;;;;17.42;10.98;;;;;;;-0.40;73.94;94577.34;5111817;28;20502;-74
2021/12/01 08:35:58;;;;;;;18.40;11.07;;;;;;;-0.31;73.65;94571.00;5093529;28;20030;-73
2021/12/01 08:38:23;;;;;;;16.95;11.43;;;;;;;-0.14;72.55;94555.78;5093654;28;20027;-73
2021/12/01 08:40:49;;;;;;;17.55;11.68;;;;;;;0.00;70.39;94565.38;5112098;28;20039;-73
2021/12/01 08:43:14;;;;;;;17.30;11.18;;;;;;;0.04;69.34;94553.28;5110424;28;20096;-73
2021/12/01 08:45:39;;;;;;;16.15;11.27;;;;;;;0.43;67.02;94571.03;5110614;28;20462;-73
2021/12/01 08:48:05;;;;;;;24.13;16.35;;;;;;;0.36;67.46;94565.41;5111588;28;20031;-73
2021/12/01 08:50:31;;;;;;;27.98;16.70;;;;;;;0.36;68.95;94559.44;5109850;28;20063;-73
2021/12/01 08:52:57;;;;;;;23.65;15.10;;;;;;;0.56;68.51;94558.50;5093436;28;20432;-74
2021/12/01 08:55:23;;;;;;;18.25;12.32;;;;;;;0.47;70.89;94576.81;5093458;28;20040;-73
2021/12/01 08:57:49;;;;;;;17.02;11.45;;;;;;;0.59;71.95;94561.75;5093321;28;20034;-73
2021/12/01 09:00:16;;;;;;;21.13;13.55;;;;;;;0.77;70.98;94551.53;5093414;28;20470;-73
2021/12/01 09:02:42;;;;;;;27.95;18.00;;;;;;;1.08;68.65;94578.97;5110375;28;20028;-73
2021/12/01 09:05:07;;;;;;;21.17;13.93;;;;;;;0.89;68.64;94556.03;5093050;28;20421;-73
2021/12/01 09:07:33;;;;;;;22.27;14.05;;;;;;;0.93;65.95;94569.50;5110175;28;20063;-73
2021/12/01 09:09:58;;;;;;;18.38;12.80;;;;;;;0.87;69.38;94563.78;5110225;28;20046;-73
2021/12/01 09:12:24;;;;;;;20.83;12.82;;;;;;;0.99;68.95;94576.88;5111342;28;20049;-73
2021/12/01 09:14:51;;;;;;;25.33;15.32;;;;;;;0.93;69.25;94566.97;5093176;28;20035;-73
2021/12/01 09:17:17;;;;;;;24.92;16.70;;;;;;;1.05;68.85;94584.25;5109969;28;20080;-73
2021/12/01 09:19:43;;;;;;;25.98;17.23;;;;;;;0.97;69.65;94582.06;5093097;28;20035;-73
2021/12/01 09:22:08;;;;;;;30.20;18.00;;;;;;;1.11;66.50;94551.53;5109973;28;20550;-75
2021/12/01 09:24:34;;;;;;;21.30;13.75;;;;;;;1.51;69.37;94558.91;5093039;28;20081;-74
2021/12/01 09:27:00;;;;;;;28.60;17.63;;;;;;;1.54;65.06;94546.78;5109950;28;20028;-74
2021/12/01 09:29:27;;;;;;;42.28;24.90;;;;;;;1.60;66.60;94565.28;5093169;28;20053;-74
2021/12/01 09:31:54;;;;;;;48.33;27.25;;;;;;;1.61;68.07;94557.50;5109933;28;20027;-74
2021/12/01 09:34:20;;;;;;;44.35;24.30;;;;;;;1.82;68.92;94549.63;5109732;28;20024;-74
2021/12/01 09:36:45;;;;;;;41.47;24.35;;;;;;;2.02;66.72;94559.63;5092954;28;20031;-74
2021/12/01 09:39:11;;;;;;;36.65;22.27;;;;;;;2.07;66.58;94549.97;5092836;28;20405;-74
2021/12/01 09:41:36;;;;;;;28.63;16.27;;;;;;;2.09;64.51;94553.28;5092887;28;20098;-74
2021/12/01 09:44:02;;;;;;;31.00;17.52;;;;;;;2.17;64.12;94558.81;5110871;28;20039;-74
2021/12/01 09:46:30;;;;;;;31.40;17.38;;;;;;;1.98;64.29;94532.53;5092819;28;20050;-74
2021/12/01 09:48:56;;;;;;;25.38;15.45;;;;;;;2.13;63.55;94547.06;5109694;28;20039;-74
2021/12/01 09:51:21;;;;;;;19.13;11.57;;;;;;;2.48;61.62;94569.97;5109620;28;20024;-74
2021/12/01 09:53:47;;;;;;;16.65;10.00;;;;;;;2.50;59.84;94563.00;5092667;28;20043;-74
2021/12/01 09:56:12;;;;;;;16.55;10.13;;;;;;;2.52;62.29;94556.06;5110771;28;20032;-74
2021/12/01 09:58:38;;;;;;;13.05;7.55;;;;;;;2.36;59.38;94533.00;5092674;28;20335;-74
2021/12/01 10:01:05;;;;;;;14.88;9.55;;;;;;;2.48;59.16;94552.03;5110531;28;20095;-73
2021/12/01 10:03:31;;;;;;;15.38;7.55;;;;;;;2.63;58.50;94546.03;5113360;28;20415;-74
2021/12/01 10:06:03;;;;;;;18.70;8.90;;;;;;;2.68;61.29;94545.78;5096270;28;20073;-74
2021/12/01 10:08:34;;;;;;;18.38;10.80;;;;;;;2.61;63.83;94531.63;5114554;28;20026;-74
2021/12/01 10:11:07;;;;;;;14.98;9.85;;;;;;;2.46;62.91;94525.63;5113396;28;20099;-73
2021/12/01 10:13:37;;;;;;;17.13;9.88;;;;;;;2.69;59.88;94527.72;5096281;28;20134;-73
2021/12/01 10:16:05;;;;;;;17.17;10.20;;;;;;;2.83;63.24;94536.38;5113267;28;20476;-74
2021/12/01 10:18:37;;;;;;;18.83;11.05;;;;;;;2.84;62.50;94546.56;5096501;28;20055;-74
2021/12/01 10:21:08;;;;;;;23.17;11.82;;;;;;;2.82;60.76;94521.91;5113196;28;20043;-74
2021/12/01 10:23:35;;;;;;;12.38;7.28;;;;;;;2.91;59.80;94549.59;5113096;28;20081;-74
2021/12/01 10:26:11;;;;;;;16.58;9.98;;;;;;;3.07;59.33;94547.00;5113036;28;20032;-74
2021/12/01 10:28:51;;;;;;;14.02;9.82;;;;;;;3.04;58.51;94540.28;5113341;28;20016;-74
2021/12/01 10:31:29;;;;;;;19.90;13.00;;;;;;;3.13;58.00;94556.91;5097460;28;20046;-74
2021/12/01 10:33:54;;;;;;;19.60;12.27;;;;;;;3.25;58.16;94547.66;5113121;28;20028;-74
2021/12/01 10:36:20;;;;;;;11.52;7.75;;;;;;;3.06;60.25;94548.72;5112809;28;20040;-74
2021/12/01 10:38:45;;;;;;;10.80;6.03;;;;;;;3.16;59.92;94553.34;5095792;28;20023;-74
2021/12/01 10:41:12;;;;;;;14.98;9.52;;;;;;;3.27;59.32;94545.84;5078894;28;20039;-75
2021/12/01 10:43:46;;;;;;;18.58;11.02;;;;;;;3.27;58.48;94533.81;5078837;28;20051;-74
2021/12/01 10:46:16;;;;;;;21.58;10.48;;;;;;;3.13;59.10;94521.78;5112686;28;20073;-74
2021/12/01 10:48:42;;;;;;;18.15;10.20;;;;;;;3.26;58.57;94521.06;5113911;28;20027;-74
2021/12/01 10:51:09;;;;;;;16.77;10.13;;;;;;;3.35;60.33;94531.63;5095500;28;20039;-74
2021/12/01 10:53:34;;;;;;;13.35;9.32;;;;;;;3.28;60.24;94514.09;5112534;28;20073;-74
2021/12/01 10:56:02;;;;;;;15.02;8.25;;;;;;;3.30;59.76;94518.22;5112460;28;20493;-74
2021/12/01 10:58:39;;;;;;;12.60;8.48;;;;;;;3.41;58.23;94515.03;5078651;28;20024;-74
2021/12/01 11:01:06;;;;;;;16.15;11.75;;;;;;;3.55;59.78;94512.47;5095523;28;20031;-74
2021/12/01 11:03:33;;;;;;;13.18;8.85;;;;;;;3.47;61.57;94494.13;5095544;28;20115;-74
2021/12/01 11:06:14;;;;;;;12.63;8.50;;;;;;;3.64;63.98;94505.13;5095389;28;20055;-75
2021/12/01 11:08:41;;;;;;;15.50;7.40;;;;;;;3.63;65.27;94514.56;5112441;28;20432;-75
2021/12/01 11:11:12;;;;;;;10.05;6.88;;;;;;;3.64;65.72;94499.97;5095131;28;20042;-74
2021/12/01 11:13:40;;;;;;;12.38;7.68;;;;;;;3.76;64.51;94499.22;5094608;28;20026;-74
2021/12/01 11:16:07;;;;;;;13.07;8.00;;;;;;;3.78;63.03;94474.25;5095397;28;20132;-74
2021/12/01 11:18:34;;;;;;;16.30;8.18;;;;;;;3.88;63.97;94489.97;5078196;28;20027;-75
2021/12/01 11:21:07;;;;;;;12.80;7.50;;;;;;;3.90;65.10;94498.38;5095095;28;20023;-76
2021/12/01 11:23:34;;;;;;;13.30;7.70;;;;;;;3.58;65.98;94501.19;5095313;28;20031;-74
2021/12/01 11:26:05;;;;;;;12.60;7.72;;;;;;;3.46;67.15;94501.94;5094999;28;20051;-75
2021/12/01 11:28:32;;;;;;;11.63;7.63;;;;;;;3.59;66.71;94492.53;5095524;28;20569;-75